Time,TemperatureF,DewpointF,PressureIn,WindDirection,WindDirectionDegrees,WindSpeedMPH,WindSpeedGustMPH,Humidity,HourlyPrecipIn,Conditions,Clouds,dailyrainin,SoftwareType,DateUTC
2013-01-25 00:00:00,17.5,2.8,30.40,WNW,290,4.0,5.0,52,0.00,,,0.00,Wunderground v.1.15,2013-01-25 05:00:00,
2013-01-25 00:05:00,17.4,3.2,30.40,WNW,285,5.0,5.0,53,0.00,,,0.00,Wunderground v.1.15,2013-01-25 05:05:00,
2013-01-25 00:10:00,17.4,3.2,30.40,NW,310,6.0,7.0,53,0.00,,,0.00,Wunderground v.1.15,2013-01-25 05:10:00,
2013-01-25 00:15:00,17.3,3.1,30.40,WNW,291,6.0,7.0,53,0.00,,,0.00,Wunderground v.1.15,2013-01-25 05:15:00,
2013-01-25 00:20:00,17.3,3.1,30.40,WNW,302,5.0,5.0,53,0.00,,,0.00,Wunderground v.1.15,2013-01-25 05:20:00,
2013-01-25 00:30:00,17.2,3.0,30.40,West,269,6.0,6.0,53,0.00,,,0.00,Wunderground v.1.15,2013-01-25 05:30:00,
2013-01-25 00:35:00,17.1,3.3,30.39,NW,321,5.0,7.0,54,0.00,,,0.00,Wunderground v.1.15,2013-01-25 05:35:00,
2013-01-25 00:40:00,17.0,2.8,30.39,WNW,297,5.0,7.0,53,0.00,,,0.00,Wunderground v.1.15,2013-01-25 05:40:00,
2013-01-25 00:45:00,17.0,2.8,30.39,WNW,290,7.0,7.0,53,0.00,,,0.00,Wunderground v.1.15,2013-01-25 05:45:00,
2013-01-25 00:55:00,16.9,3.1,30.39,WNW,299,7.0,9.0,54,0.00,,,0.00,Wunderground v.1.15,2013-01-25 05:55:00,
2013-01-25 01:00:00,16.8,3.0,30.39,WNW,290,7.0,7.0,54,0.00,,,0.00,Wunderground v.1.15,2013-01-25 06:00:00,
2013-01-25 01:05:00,16.8,3.0,30.39,West,276,6.0,7.0,54,0.00,,,0.00,Wunderground v.1.15,2013-01-25 06:05:00,
2013-01-25 01:10:00,16.7,2.5,30.39,NW,309,7.0,7.0,53,0.00,,,0.00,Wunderground v.1.15,2013-01-25 06:10:00,
2013-01-25 01:20:00,16.5,2.7,30.39,NW,316,6.0,7.0,54,0.00,,,0.00,Wunderground v.1.15,2013-01-25 06:20:00,
2013-01-25 01:25:00,16.5,2.3,30.39,WNW,294,6.0,8.0,53,0.00,,,0.00,Wunderground v.1.15,2013-01-25 06:25:00,
2013-01-25 01:30:00,16.4,2.2,30.39,NW,305,8.0,8.0,53,0.00,,,0.00,Wunderground v.1.15,2013-01-25 06:30:00,
2013-01-25 01:35:00,16.4,2.2,30.39,NW,312,7.0,8.0,53,0.00,,,0.00,Wunderground v.1.15,2013-01-25 06:35:00,
2013-01-25 01:40:00,16.3,2.1,30.40,NW,320,6.0,10.0,53,0.00,,,0.00,Wunderground v.1.15,2013-01-25 06:40:00,
2013-01-25 01:50:00,16.2,2.0,30.40,NW,324,5.0,9.0,53,0.00,,,0.00,Wunderground v.1.15,2013-01-25 06:50:00,
2013-01-25 02:00:00,16.0,1.9,30.40,NW,322,6.0,7.0,53,0.00,,,0.00,Wunderground v.1.15,2013-01-25 07:00:00,
2013-01-25 02:05:00,16.0,1.0,30.41,NW,317,6.0,7.0,51,0.00,,,0.00,Wunderground v.1.15,2013-01-25 07:05:00,
2013-01-25 02:15:00,15.9,1.4,30.41,NW,308,7.0,7.0,52,0.00,,,0.00,Wunderground v.1.15,2013-01-25 07:15:00,
2013-01-25 02:20:00,15.9,1.8,30.41,NW,307,7.0,7.0,53,0.00,,,0.00,Wunderground v.1.15,2013-01-25 07:20:00,
2013-01-25 02:25:00,15.8,1.7,30.40,NW,322,6.0,7.0,53,0.00,,,0.00,Wunderground v.1.15,2013-01-25 07:25:00,
2013-01-25 02:35:00,15.5,1.8,30.40,West,281,5.0,7.0,54,0.00,,,0.00,Wunderground v.1.15,2013-01-25 07:35:00,
2013-01-25 02:40:00,15.5,1.8,30.41,NW,316,5.0,7.0,54,0.00,,,0.00,Wunderground v.1.15,2013-01-25 07:40:00,
2013-01-25 02:45:00,15.4,0.9,30.41,NNW,328,6.0,8.0,52,0.00,,,0.00,Wunderground v.1.15,2013-01-25 07:45:00,
2013-01-25 02:55:00,15.4,1.3,30.40,NW,308,7.0,7.0,53,0.00,,,0.00,Wunderground v.1.15,2013-01-25 07:55:00,
2013-01-25 03:00:00,15.3,1.2,30.40,WNW,294,5.0,5.0,53,0.00,,,0.00,Wunderground v.1.15,2013-01-25 08:00:00,
2013-01-25 03:05:00,15.2,1.1,30.40,NW,308,5.0,5.0,53,0.00,,,0.00,Wunderground v.1.15,2013-01-25 08:05:00,
2013-01-25 03:15:00,15.2,1.5,30.40,NNW,331,5.0,7.0,54,0.00,,,0.00,Wunderground v.1.15,2013-01-25 08:15:00,
2013-01-25 03:20:00,15.4,1.7,30.40,NW,316,7.0,7.0,54,0.00,,,0.00,Wunderground v.1.15,2013-01-25 08:20:00,
2013-01-25 03:30:00,15.0,0.9,30.40,West,281,6.0,6.0,53,0.00,,,0.00,Wunderground v.1.15,2013-01-25 08:30:00,
2013-01-25 03:35:00,15.0,0.9,30.39,NNW,335,6.0,7.0,53,0.00,,,0.00,Wunderground v.1.15,2013-01-25 08:35:00,
2013-01-25 03:40:00,14.9,1.2,30.40,WNW,302,7.0,7.0,54,0.00,,,0.00,Wunderground v.1.15,2013-01-25 08:40:00,
2013-01-25 03:50:00,14.9,1.6,30.40,West,274,8.0,8.0,55,0.00,,,0.00,Wunderground v.1.15,2013-01-25 08:50:00,
2013-01-25 04:00:00,14.7,1.0,30.40,NNW,346,7.0,7.0,54,0.00,,,0.00,Wunderground v.1.15,2013-01-25 09:00:00,
2013-01-25 04:05:00,14.7,1.4,30.40,NW,313,7.0,8.0,55,0.00,,,0.00,Wunderground v.1.15,2013-01-25 09:05:00,
2013-01-25 04:10:00,14.7,2.2,30.40,NNE,19,6.0,6.0,57,0.00,,,0.00,Wunderground v.1.15,2013-01-25 09:10:00,
2013-01-25 04:20:00,14.3,0.7,30.41,West,263,2.0,2.0,54,0.00,,,0.00,Wunderground v.1.15,2013-01-25 09:20:00,
2013-01-25 04:25:00,14.1,0.9,30.40,NNW,342,2.0,8.0,55,0.00,,,0.00,Wunderground v.1.15,2013-01-25 09:25:00,
2013-01-25 04:30:00,14.2,1.7,30.39,NW,322,4.0,5.0,57,0.00,,,0.00,Wunderground v.1.15,2013-01-25 09:30:00,
2013-01-25 04:35:00,14.1,1.6,30.40,WNW,294,5.0,5.0,57,0.00,,,0.00,Wunderground v.1.15,2013-01-25 09:35:00,
2013-01-25 04:45:00,13.9,1.1,30.40,NW,322,3.0,4.0,56,0.00,,,0.00,Wunderground v.1.15,2013-01-25 09:45:00,
2013-01-25 04:55:00,14.0,1.9,30.41,WNW,295,5.0,5.0,58,0.00,,,0.00,Wunderground v.1.15,2013-01-25 09:55:00,
2013-01-25 05:00:00,13.9,1.5,30.40,NNW,340,4.0,4.0,57,0.00,,,0.00,Wunderground v.1.15,2013-01-25 10:00:00,
2013-01-25 05:05:00,13.9,1.8,30.40,NW,312,4.0,6.0,58,0.00,,,0.00,Wunderground v.1.15,2013-01-25 10:05:00,
2013-01-25 05:15:00,13.6,1.5,30.41,West,279,4.0,4.0,58,0.00,,,0.00,Wunderground v.1.15,2013-01-25 10:15:00,
2013-01-25 05:20:00,13.7,2.7,30.40,NW,322,3.0,3.0,61,0.00,,,0.00,Wunderground v.1.15,2013-01-25 10:20:00,
2013-01-25 05:30:00,13.5,2.5,30.41,NNW,331,3.0,4.0,61,0.00,,,0.00,Wunderground v.1.15,2013-01-25 10:30:00,
2013-01-25 05:40:00,13.4,2.1,30.41,WNW,302,5.0,5.0,60,0.00,,,0.00,Wunderground v.1.15,2013-01-25 10:40:00,
2013-01-25 05:45:00,13.3,2.3,30.41,NW,326,4.0,5.0,61,0.00,,,0.00,Wunderground v.1.15,2013-01-25 10:45:00,
2013-01-25 05:50:00,13.4,2.4,30.40,NW,305,5.0,7.0,61,0.00,,,0.00,Wunderground v.1.15,2013-01-25 10:50:00,
2013-01-25 06:00:00,13.3,2.7,30.41,West,280,6.0,6.0,62,0.00,,,0.00,Wunderground v.1.15,2013-01-25 11:00:00,
2013-01-25 06:10:00,13.3,3.0,30.39,NW,319,4.0,6.0,63,0.00,,,0.00,Wunderground v.1.15,2013-01-25 11:10:00,
2013-01-25 06:15:00,13.2,2.3,30.40,WNW,302,6.0,6.0,61,0.00,,,0.00,Wunderground v.1.15,2013-01-25 11:15:00,
2013-01-25 06:25:00,13.3,3.4,30.39,NW,312,5.0,6.0,64,0.00,,,0.00,Wunderground v.1.15,2013-01-25 11:25:00,
2013-01-25 06:30:00,13.3,2.7,30.39,NW,310,6.0,6.0,62,0.00,,,0.00,Wunderground v.1.15,2013-01-25 11:30:00,
2013-01-25 06:35:00,13.3,3.0,30.39,WSW,252,6.0,6.0,63,0.00,,,0.00,Wunderground v.1.15,2013-01-25 11:35:00,
2013-01-25 06:40:00,13.4,3.1,30.39,NW,321,6.0,6.0,63,0.00,,,0.00,Wunderground v.1.15,2013-01-25 11:40:00,
2013-01-25 06:45:00,13.3,3.0,30.39,WNW,295,6.0,7.0,63,0.00,,,0.00,Wunderground v.1.15,2013-01-25 11:45:00,
2013-01-25 06:50:00,13.3,2.7,30.40,NNW,335,5.0,5.0,62,0.00,,,0.00,Wunderground v.1.15,2013-01-25 11:50:00,
2013-01-25 06:55:00,13.3,3.0,30.39,NW,308,4.0,6.0,63,0.00,,,0.00,Wunderground v.1.15,2013-01-25 11:55:00,
2013-01-25 07:05:00,13.4,2.8,30.40,NW,319,6.0,7.0,62,0.00,,,0.00,Wunderground v.1.15,2013-01-25 12:05:00,
2013-01-25 07:10:00,13.4,3.1,30.39,NW,310,5.0,5.0,63,0.00,,,0.00,Wunderground v.1.15,2013-01-25 12:10:00,
2013-01-25 07:20:00,13.4,3.1,30.37,NW,307,5.0,8.0,63,0.00,,,0.00,Wunderground v.1.15,2013-01-25 12:20:00,
2013-01-25 07:30:00,13.4,3.5,30.38,NNW,340,5.0,5.0,64,0.00,,,0.00,Wunderground v.1.15,2013-01-25 12:30:00,
2013-01-25 07:40:00,13.7,4.1,30.37,NNW,342,6.0,6.0,65,0.00,,,0.00,Wunderground v.1.15,2013-01-25 12:40:00,
2013-01-25 07:45:00,13.7,3.8,30.37,NNW,338,6.0,6.0,64,0.00,,,0.00,Wunderground v.1.15,2013-01-25 12:45:00,
2013-01-25 07:50:00,13.9,4.0,30.38,NNW,337,6.0,7.0,64,0.00,,,0.00,Wunderground v.1.15,2013-01-25 12:50:00,
2013-01-25 08:00:00,14.0,4.4,30.37,NW,309,6.0,6.0,65,0.00,,,0.00,Wunderground v.1.15,2013-01-25 13:00:00,
2013-01-25 08:10:00,14.1,4.1,30.37,NNW,342,6.0,6.0,64,0.00,,,0.00,Wunderground v.1.15,2013-01-25 13:10:00,
2013-01-25 08:15:00,14.2,3.9,30.37,NW,319,7.0,7.0,63,0.00,,,0.00,Wunderground v.1.15,2013-01-25 13:15:00,
2013-01-25 08:20:00,14.3,4.0,30.37,NW,313,7.0,7.0,63,0.00,,,0.00,Wunderground v.1.15,2013-01-25 13:20:00,
2013-01-25 08:30:00,14.5,4.5,30.38,WNW,295,6.0,8.0,64,0.00,,,0.00,Wunderground v.1.15,2013-01-25 13:30:00,
2013-01-25 08:35:00,14.6,4.6,30.38,NW,315,6.0,11.0,64,0.00,,,0.00,Wunderground v.1.15,2013-01-25 13:35:00,
2013-01-25 08:40:00,14.8,5.2,30.38,WNW,301,7.0,7.0,65,0.00,,,0.00,Wunderground v.1.15,2013-01-25 13:40:00,
2013-01-25 08:50:00,14.9,4.9,30.39,WNW,294,6.0,6.0,64,0.00,,,0.00,Wunderground v.1.15,2013-01-25 13:50:00,
2013-01-25 09:00:00,15.2,4.9,30.40,NNW,335,6.0,6.0,63,0.00,,,0.00,Wunderground v.1.15,2013-01-25 14:00:00,
2013-01-25 09:10:00,15.3,4.9,30.40,NW,319,5.0,7.0,63,0.00,,,0.00,Wunderground v.1.15,2013-01-25 14:10:00,
2013-01-25 09:15:00,15.3,4.6,30.39,NW,311,6.0,11.0,62,0.00,,,0.00,Wunderground v.1.15,2013-01-25 14:15:00,
2013-01-25 09:20:00,15.6,5.6,30.39,NNW,330,6.0,6.0,64,0.00,,,0.00,Wunderground v.1.15,2013-01-25 14:20:00,
2013-01-25 09:30:00,15.8,5.4,30.40,NNW,328,3.0,3.0,63,0.00,,,0.00,Wunderground v.1.15,2013-01-25 14:30:00,
2013-01-25 09:35:00,16.0,5.6,30.40,NW,324,4.0,7.0,63,0.00,,,0.00,Wunderground v.1.15,2013-01-25 14:35:00,
2013-01-25 09:40:00,16.0,4.9,30.40,NNW,335,5.0,6.0,61,0.00,,,0.00,Wunderground v.1.15,2013-01-25 14:40:00,
2013-01-25 09:50:00,16.2,5.5,30.40,NNW,333,6.0,7.0,62,0.00,,,0.00,Wunderground v.1.15,2013-01-25 14:50:00,
2013-01-25 09:55:00,16.3,5.5,30.39,NW,312,6.0,7.0,62,0.00,,,0.00,Wunderground v.1.15,2013-01-25 14:55:00,
2013-01-25 10:05:00,16.7,5.9,30.39,NW,324,5.0,7.0,62,0.00,,,0.00,Wunderground v.1.15,2013-01-25 15:05:00,
2013-01-25 10:10:00,17.1,6.3,30.39,NW,319,5.0,5.0,62,0.00,,,0.00,Wunderground v.1.15,2013-01-25 15:10:00,
2013-01-25 10:20:00,17.3,6.1,30.39,NNW,345,5.0,5.0,61,0.00,,,0.00,Wunderground v.1.15,2013-01-25 15:20:00,
2013-01-25 10:25:00,17.4,6.2,30.38,NW,319,5.0,5.0,61,0.00,,,0.00,Wunderground v.1.15,2013-01-25 15:25:00,
2013-01-25 10:35:00,17.7,5.4,30.38,WNW,294,6.0,8.0,58,0.00,,,0.00,Wunderground v.1.15,2013-01-25 15:35:00,
2013-01-25 10:40:00,17.7,5.8,30.37,NW,316,5.0,5.0,59,0.00,,,0.00,Wunderground v.1.15,2013-01-25 15:40:00,
2013-01-25 10:50:00,18.2,6.3,30.37,WNW,285,4.0,4.0,59,0.00,,,0.00,Wunderground v.1.15,2013-01-25 15:50:00,
2013-01-25 11:00:00,18.5,6.2,30.36,West,274,3.0,4.0,58,0.00,,,0.00,Wunderground v.1.15,2013-01-25 16:00:00,
2013-01-25 11:10:00,18.8,6.4,30.35,North,8,3.0,3.0,58,0.00,,,0.00,Wunderground v.1.15,2013-01-25 16:10:00,
2013-01-25 11:15:00,18.7,6.0,30.34,NW,326,4.0,4.0,57,0.00,,,0.00,Wunderground v.1.15,2013-01-25 16:15:00,
2013-01-25 11:25:00,19.2,5.7,30.34,SW,226,1.0,3.0,55,0.00,,,0.00,Wunderground v.1.15,2013-01-25 16:25:00,
2013-01-25 11:35:00,19.5,6.3,30.32,NW,321,2.0,3.0,56,0.00,,,0.00,Wunderground v.1.15,2013-01-25 16:35:00,
2013-01-25 11:45:00,19.7,5.7,30.32,NNW,347,1.0,2.0,54,0.00,,,0.00,Wunderground v.1.15,2013-01-25 16:45:00,
2013-01-25 11:50:00,19.8,6.6,30.31,NNW,333,2.0,2.0,56,0.00,,,0.00,Wunderground v.1.15,2013-01-25 16:50:00,
2013-01-25 12:00:00,20.1,6.9,30.30,West,278,2.0,2.0,56,0.00,,,0.00,Wunderground v.1.15,2013-01-25 17:00:00,
2013-01-25 12:05:00,20.4,6.8,30.31,NW,310,2.0,2.0,55,0.00,,,0.00,Wunderground v.1.15,2013-01-25 17:05:00,
2013-01-25 12:10:00,20.6,6.2,30.30,NW,319,1.0,5.0,53,0.00,,,0.00,Wunderground v.1.15,2013-01-25 17:10:00,
2013-01-25 12:15:00,20.8,6.7,30.30,NW,309,1.0,5.0,54,0.00,,,0.00,Wunderground v.1.15,2013-01-25 17:15:00,
2013-01-25 12:20:00,20.8,6.3,30.30,NW,319,1.0,1.0,53,0.00,,,0.00,Wunderground v.1.15,2013-01-25 17:20:00,
2013-01-25 12:25:00,20.8,6.3,30.30,NW,309,2.0,2.0,53,0.00,,,0.00,Wunderground v.1.15,2013-01-25 17:25:00,
2013-01-25 12:35:00,21.0,6.5,30.29,West,266,1.0,2.0,53,0.00,,,0.00,Wunderground v.1.15,2013-01-25 17:35:00,
2013-01-25 12:40:00,21.1,7.0,30.29,NW,319,1.0,1.0,54,0.00,,,0.00,Wunderground v.1.15,2013-01-25 17:40:00,
2013-01-25 12:45:00,21.2,6.7,30.28,SW,218,2.0,2.0,53,0.00,,,0.00,Wunderground v.1.15,2013-01-25 17:45:00,
2013-01-25 12:50:00,21.6,7.1,30.28,WNW,288,1.0,1.0,53,0.00,,,0.00,Wunderground v.1.15,2013-01-25 17:50:00,
2013-01-25 13:00:00,21.4,6.5,30.27,NW,324,1.0,1.0,52,0.00,,,0.00,Wunderground v.1.15,2013-01-25 18:00:00,
2013-01-25 13:05:00,21.8,7.3,30.26,West,262,1.0,1.0,53,0.00,,,0.00,Wunderground v.1.15,2013-01-25 18:05:00,
2013-01-25 13:10:00,22.0,7.0,30.26,West,263,1.0,1.0,52,0.00,,,0.00,Wunderground v.1.15,2013-01-25 18:10:00,
2013-01-25 13:20:00,22.1,6.3,30.26,West,280,1.0,2.0,50,0.00,,,0.00,Wunderground v.1.15,2013-01-25 18:20:00,
2013-01-25 13:25:00,22.4,7.4,30.25,South,176,1.0,2.0,52,0.00,,,0.00,Wunderground v.1.15,2013-01-25 18:25:00,
2013-01-25 13:35:00,22.9,7.4,30.25,SSW,197,1.0,2.0,51,0.00,,,0.00,Wunderground v.1.15,2013-01-25 18:35:00,
2013-01-25 13:40:00,23.3,7.8,30.25,South,187,2.0,2.0,51,0.00,,,0.00,Wunderground v.1.15,2013-01-25 18:40:00,
2013-01-25 13:45:00,23.6,7.7,30.24,SSW,207,2.0,2.0,50,0.00,,,0.00,Wunderground v.1.15,2013-01-25 18:45:00,
2013-01-25 13:55:00,23.6,7.2,30.24,WSW,252,2.0,2.0,49,0.00,,,0.00,Wunderground v.1.15,2013-01-25 18:55:00,
2013-01-25 14:05:00,23.6,7.7,30.23,SW,221,1.0,2.0,50,0.00,,,0.00,Wunderground v.1.15,2013-01-25 19:05:00,
2013-01-25 14:10:00,23.6,8.1,30.23,WSW,240,1.0,1.0,51,0.00,,,0.00,Wunderground v.1.15,2013-01-25 19:10:00,
2013-01-25 14:15:00,23.7,7.3,30.23,SE,133,1.0,1.0,49,0.00,,,0.00,Wunderground v.1.15,2013-01-25 19:15:00,
2013-01-25 14:25:00,23.9,7.5,30.22,South,177,2.0,2.0,49,0.00,,,0.00,Wunderground v.1.15,2013-01-25 19:25:00,
2013-01-25 14:30:00,24.1,7.7,30.23,SSE,156,2.0,2.0,49,0.00,,,0.00,Wunderground v.1.15,2013-01-25 19:30:00,
2013-01-25 14:35:00,24.2,7.8,30.23,WSW,246,2.0,2.0,49,0.00,,,0.00,Wunderground v.1.15,2013-01-25 19:35:00,
2013-01-25 14:40:00,24.1,8.1,30.22,West,278,1.0,1.0,50,0.00,,,0.00,Wunderground v.1.15,2013-01-25 19:40:00,
2013-01-25 14:50:00,24.1,7.2,30.21,SSE,156,1.0,1.0,48,0.00,,,0.00,Wunderground v.1.15,2013-01-25 19:50:00,
2013-01-25 15:00:00,24.2,7.3,30.21,SW,221,1.0,1.0,48,0.00,,,0.00,Wunderground v.1.15,2013-01-25 20:00:00,
2013-01-25 15:05:00,24.2,7.8,30.20,South,187,1.0,1.0,49,0.00,,,0.00,Wunderground v.1.15,2013-01-25 20:05:00,
2013-01-25 15:10:00,24.3,8.3,30.20,WSW,255,1.0,1.0,50,0.00,,,0.00,Wunderground v.1.15,2013-01-25 20:10:00,
2013-01-25 15:20:00,24.3,9.2,30.20,SSE,160,1.0,2.0,52,0.00,,,0.00,Wunderground v.1.15,2013-01-25 20:20:00,
2013-01-25 15:30:00,24.2,9.5,30.20,SW,224,2.0,3.0,53,0.00,,,0.00,Wunderground v.1.15,2013-01-25 20:30:00,
2013-01-25 15:35:00,24.1,9.8,30.20,SSE,159,2.0,3.0,54,0.00,,,0.00,Wunderground v.1.15,2013-01-25 20:35:00,
2013-01-25 15:45:00,23.9,10.5,30.20,SW,221,2.0,4.0,56,0.00,,,0.00,Wunderground v.1.15,2013-01-25 20:45:00,
2013-01-25 15:50:00,23.9,10.9,30.20,SW,233,2.0,2.0,57,0.00,,,0.00,Wunderground v.1.15,2013-01-25 20:50:00,
2013-01-25 16:00:00,23.8,11.2,30.19,SSE,156,1.0,1.0,58,0.00,,,0.00,Wunderground v.1.15,2013-01-25 21:00:00,
2013-01-25 16:05:00,23.9,12.0,30.18,South,169,2.0,2.0,60,0.00,,,0.00,Wunderground v.1.15,2013-01-25 21:05:00,
2013-01-25 16:15:00,23.9,12.4,30.18,SW,235,3.0,3.0,61,0.00,,,0.00,Wunderground v.1.15,2013-01-25 21:15:00,
2013-01-25 16:25:00,23.7,12.6,30.18,SW,235,2.0,3.0,62,0.00,,,0.00,Wunderground v.1.15,2013-01-25 21:25:00,
2013-01-25 16:30:00,23.5,13.8,30.18,West,278,2.0,2.0,66,0.00,,,0.00,Wunderground v.1.15,2013-01-25 21:30:00,
2013-01-25 16:35:00,23.2,13.9,30.18,SSW,193,2.0,2.0,67,0.00,,,0.00,Wunderground v.1.15,2013-01-25 21:35:00,
2013-01-25 16:45:00,22.5,15.1,30.18,NW,322,2.0,2.0,73,0.00,,,0.00,Wunderground v.1.15,2013-01-25 21:45:00,
2013-01-25 16:50:00,22.0,15.3,30.18,WSW,243,2.0,2.0,75,0.00,,,0.00,Wunderground v.1.15,2013-01-25 21:50:00,
2013-01-25 16:55:00,21.6,15.2,30.18,West,260,2.0,2.0,76,0.00,,,0.00,Wunderground v.1.15,2013-01-25 21:55:00,
2013-01-25 17:05:00,21.2,15.7,30.17,NNW,330,1.0,1.0,79,0.00,,,0.00,Wunderground v.1.15,2013-01-25 22:05:00,
2013-01-25 17:10:00,21.1,16.2,30.17,WNW,283,1.0,3.0,81,0.00,,,0.00,Wunderground v.1.15,2013-01-25 22:10:00,
2013-01-25 17:20:00,20.5,16.4,30.16,West,273,1.0,1.0,84,0.00,,,0.00,Wunderground v.1.15,2013-01-25 22:20:00,
2013-01-25 17:25:00,20.5,16.7,30.16,West,276,0.0,1.0,85,0.00,,,0.00,Wunderground v.1.15,2013-01-25 22:25:00,
2013-01-25 17:30:00,20.4,16.9,30.15,WNW,300,0.0,0.0,86,0.00,,,0.00,Wunderground v.1.15,2013-01-25 22:30:00,
2013-01-25 17:35:00,20.3,17.0,30.14,WNW,294,0.0,0.0,87,0.00,,,0.00,Wunderground v.1.15,2013-01-25 22:35:00,
2013-01-25 17:45:00,20.4,17.1,30.14,WSW,238,0.0,0.0,87,0.00,,,0.00,Wunderground v.1.15,2013-01-25 22:45:00,
2013-01-25 17:50:00,20.4,17.4,30.14,SSW,194,0.0,0.0,88,0.00,,,0.00,Wunderground v.1.15,2013-01-25 22:50:00,
2013-01-25 18:00:00,20.2,17.2,30.13,SW,226,0.0,0.0,88,0.00,,,0.00,Wunderground v.1.15,2013-01-25 23:00:00,
2013-01-25 18:10:00,20.1,17.1,30.13,WSW,238,1.0,1.0,88,0.00,,,0.00,Wunderground v.1.15,2013-01-25 23:10:00,
2013-01-25 18:20:00,20.2,17.2,30.12,SSW,203,0.0,0.0,88,0.00,,,0.00,Wunderground v.1.15,2013-01-25 23:20:00,
2013-01-25 18:30:00,20.3,17.3,30.12,West,280,1.0,1.0,88,0.00,,,0.00,Wunderground v.1.15,2013-01-25 23:30:00,
2013-01-25 18:35:00,20.3,17.3,30.12,NW,316,0.0,1.0,88,0.00,,,0.00,Wunderground v.1.15,2013-01-25 23:35:00,
2013-01-25 18:40:00,20.2,17.2,30.11,WSW,243,0.0,0.0,88,0.00,,,0.00,Wunderground v.1.15,2013-01-25 23:40:00,
2013-01-25 18:50:00,20.3,17.3,30.11,West,270,0.0,0.0,88,0.00,,,0.00,Wunderground v.1.15,2013-01-25 23:50:00,
2013-01-25 18:55:00,20.2,17.2,30.11,WNW,302,0.0,0.0,88,0.00,,,0.00,Wunderground v.1.15,2013-01-25 23:55:00,
2013-01-25 19:05:00,20.4,17.7,30.11,WNW,288,0.0,0.0,89,0.00,,,0.00,Wunderground v.1.15,2013-01-26 00:05:00,
2013-01-25 19:10:00,20.3,17.6,30.11,West,270,0.0,0.0,89,0.00,,,0.00,Wunderground v.1.15,2013-01-26 00:10:00,
2013-01-25 19:15:00,20.3,17.6,30.11,SSW,204,0.0,0.0,89,0.00,,,0.00,Wunderground v.1.15,2013-01-26 00:15:00,
2013-01-25 19:25:00,20.3,17.3,30.11,NW,305,0.0,1.0,88,0.00,,,0.00,Wunderground v.1.15,2013-01-26 00:25:00,
2013-01-25 19:30:00,20.3,17.3,30.11,West,280,1.0,1.0,88,0.00,,,0.00,Wunderground v.1.15,2013-01-26 00:30:00,
2013-01-25 19:40:00,20.2,17.5,30.11,NW,316,1.0,1.0,89,0.00,,,0.00,Wunderground v.1.15,2013-01-26 00:40:00,
2013-01-25 19:45:00,19.9,16.9,30.11,ESE,122,1.0,1.0,88,0.00,,,0.00,Wunderground v.1.15,2013-01-26 00:45:00,
2013-01-25 19:50:00,19.8,17.1,30.11,West,278,1.0,1.0,89,0.00,,,0.00,Wunderground v.1.15,2013-01-26 00:50:00,
2013-01-25 19:55:00,19.7,17.0,30.11,NE,50,1.0,1.0,89,0.00,,,0.00,Wunderground v.1.15,2013-01-26 00:55:00,
2013-01-25 20:00:00,19.6,16.9,30.10,West,281,1.0,1.0,89,0.00,,,0.00,Wunderground v.1.15,2013-01-26 01:00:00,
2013-01-25 20:10:00,19.5,16.8,30.10,SW,235,1.0,1.0,89,0.00,,,0.00,Wunderground v.1.15,2013-01-26 01:10:00,
2013-01-25 20:15:00,19.6,16.9,30.10,NNW,335,0.0,1.0,89,0.00,,,0.00,Wunderground v.1.15,2013-01-26 01:15:00,
2013-01-25 20:20:00,19.6,16.9,30.09,WNW,290,0.0,0.0,89,0.00,,,0.00,Wunderground v.1.15,2013-01-26 01:20:00,
2013-01-25 20:25:00,19.5,16.8,30.09,WSW,254,0.0,0.0,89,0.00,,,0.00,Wunderground v.1.15,2013-01-26 01:25:00,
2013-01-25 20:35:00,19.4,16.7,30.09,West,260,1.0,1.0,89,0.00,,,0.00,Wunderground v.1.15,2013-01-26 01:35:00,
2013-01-25 20:40:00,19.4,16.7,30.09,West,278,1.0,1.0,89,0.00,,,0.00,Wunderground v.1.15,2013-01-26 01:40:00,
2013-01-25 20:45:00,19.4,16.7,30.09,West,280,0.0,1.0,89,0.00,,,0.00,Wunderground v.1.15,2013-01-26 01:45:00,
2013-01-25 20:50:00,19.4,16.7,30.09,WSW,252,0.0,1.0,89,0.00,,,0.00,Wunderground v.1.15,2013-01-26 01:50:00,
2013-01-25 20:55:00,19.3,16.6,30.09,West,274,0.0,1.0,89,0.00,,,0.00,Wunderground v.1.15,2013-01-26 01:55:00,
2013-01-25 21:05:00,19.3,16.6,30.08,West,274,1.0,2.0,89,0.00,,,0.00,Wunderground v.1.15,2013-01-26 02:05:00,
2013-01-25 21:15:00,18.9,16.2,30.08,WNW,290,0.0,1.0,89,0.00,,,0.00,Wunderground v.1.15,2013-01-26 02:15:00,
2013-01-25 21:20:00,18.8,16.1,30.08,West,271,1.0,1.0,89,0.00,,,0.00,Wunderground v.1.15,2013-01-26 02:20:00,
2013-01-25 21:30:00,18.2,15.5,30.06,WSW,242,0.0,0.0,89,0.00,,,0.00,Wunderground v.1.15,2013-01-26 02:30:00,
2013-01-25 21:35:00,18.0,15.3,30.06,WSW,243,0.0,0.0,89,0.00,,,0.00,Wunderground v.1.15,2013-01-26 02:35:00,
2013-01-25 21:40:00,18.0,15.3,30.06,West,272,0.0,1.0,89,0.00,,,0.00,Wunderground v.1.15,2013-01-26 02:40:00,
2013-01-25 21:45:00,18.1,15.7,30.06,NW,316,1.0,1.0,90,0.00,,,0.00,Wunderground v.1.15,2013-01-26 02:45:00,
2013-01-25 21:50:00,18.2,15.8,30.06,NW,315,1.0,1.0,90,0.00,,,0.00,Wunderground v.1.15,2013-01-26 02:50:00,
2013-01-25 21:55:00,18.1,15.7,30.06,NW,311,1.0,2.0,90,0.00,,,0.00,Wunderground v.1.15,2013-01-26 02:55:00,
2013-01-25 22:00:00,18.0,15.6,30.06,WNW,302,1.0,1.0,90,0.00,,,0.00,Wunderground v.1.15,2013-01-26 03:00:00,
2013-01-25 22:10:00,17.7,15.3,30.06,WNW,287,1.0,1.0,90,0.00,,,0.00,Wunderground v.1.15,2013-01-26 03:10:00,
2013-01-25 22:15:00,17.7,15.5,30.06,NW,305,1.0,2.0,91,0.00,,,0.00,Wunderground v.1.15,2013-01-26 03:15:00,
2013-01-25 22:20:00,17.7,15.3,30.05,NW,305,1.0,1.0,90,0.00,,,0.00,Wunderground v.1.15,2013-01-26 03:20:00,
2013-01-25 22:25:00,17.5,15.1,30.05,WNW,294,1.0,1.0,90,0.00,,,0.00,Wunderground v.1.15,2013-01-26 03:25:00,
2013-01-25 22:30:00,17.5,15.1,30.05,NW,307,1.0,1.0,90,0.00,,,0.00,Wunderground v.1.15,2013-01-26 03:30:00,
2013-01-25 22:35:00,17.3,14.9,30.05,NW,308,1.0,1.0,90,0.00,,,0.00,Wunderground v.1.15,2013-01-26 03:35:00,
2013-01-25 22:45:00,17.3,15.1,30.05,NW,316,1.0,1.0,91,0.00,,,0.00,Wunderground v.1.15,2013-01-26 03:45:00,
2013-01-25 22:55:00,17.1,14.9,30.05,NW,316,1.0,2.0,91,0.00,,,0.00,Wunderground v.1.15,2013-01-26 03:55:00,
2013-01-25 23:00:00,17.0,14.8,30.05,NW,311,1.0,1.0,91,0.00,,,0.00,Wunderground v.1.15,2013-01-26 04:00:00,
2013-01-25 23:05:00,17.1,14.9,30.05,NW,325,1.0,1.0,91,0.00,,,0.00,Wunderground v.1.15,2013-01-26 04:05:00,
2013-01-25 23:15:00,16.7,14.3,30.05,NW,326,2.0,2.0,90,0.00,,,0.00,Wunderground v.1.15,2013-01-26 04:15:00,
2013-01-25 23:20:00,16.6,14.4,30.05,NW,323,2.0,2.0,91,0.00,,,0.00,Wunderground v.1.15,2013-01-26 04:20:00,
2013-01-25 23:30:00,16.5,14.3,30.04,NNW,335,2.0,2.0,91,0.00,,,0.00,Wunderground v.1.15,2013-01-26 04:30:00,
2013-01-25 23:35:00,16.3,14.1,30.05,NNW,329,1.0,2.0,91,0.00,,,0.00,Wunderground v.1.15,2013-01-26 04:35:00,
2013-01-25 23:40:00,16.1,13.9,30.05,NW,316,2.0,2.0,91,0.00,,,0.00,Wunderground v.1.15,2013-01-26 04:40:00,
2013-01-25 23:45:00,16.0,13.8,30.05,NNW,329,2.0,3.0,91,0.00,,,0.00,Wunderground v.1.15,2013-01-26 04:45:00,
2013-01-25 23:50:00,16.0,13.8,30.05,NW,310,2.0,2.0,91,0.00,,,0.00,Wunderground v.1.15,2013-01-26 04:50:00,
2013-01-25 23:55:00,16.1,13.9,30.05,NW,312,2.0,2.0,91,0.00,,,0.00,Wunderground v.1.15,2013-01-26 04:55:00,